createdAt,value
2018-12-16T00:00:49.224Z,49.67
2018-12-16T00:03:21.495Z,47.63
2018-12-16T00:05:56.156Z,40.20
2018-12-16T00:08:36.036Z,39.77
2018-12-16T00:11:09.324Z,38.17
2018-12-16T00:13:42.328Z,36.23
2018-12-16T00:16:19.701Z,38.83
2018-12-16T00:18:56.745Z,38.03
2018-12-16T00:21:29.318Z,37.00
2018-12-16T00:24:02.033Z,36.30
2018-12-16T00:29:07.218Z,39.97
2018-12-16T00:44:18.888Z,39.00
2018-12-16T00:49:25.261Z,38.57
2018-12-16T00:51:57.655Z,40.63
2018-12-16T00:54:33.765Z,39.43
2018-12-16T00:57:06.717Z,37.33
2018-12-16T00:59:39.916Z,33.97
2018-12-16T01:02:19.107Z,37.27
2018-12-16T01:04:53.151Z,38.57
2018-12-16T01:07:40.305Z,36.97
2018-12-16T01:10:14.963Z,35.77
2018-12-16T01:12:48.175Z,36.47
2018-12-16T01:15:21.477Z,36.57
2018-12-16T01:17:57.746Z,36.40
2018-12-16T01:20:36.571Z,37.07
2018-12-16T01:23:12.461Z,35.97
2018-12-16T01:25:49.981Z,36.57
2018-12-16T01:28:24.434Z,39.53
2018-12-16T01:31:02.160Z,35.10
2018-12-16T01:33:35.303Z,38.17
2018-12-16T01:36:06.801Z,37.77
2018-12-16T01:38:37.204Z,37.23
2018-12-16T01:41:10.278Z,35.57
2018-12-16T01:43:43.400Z,35.30
2018-12-16T01:46:21.359Z,36.70
2018-12-16T01:48:57.845Z,36.23
2018-12-16T01:59:01.175Z,35.50
2018-12-16T02:01:40.258Z,37.23
2018-12-16T02:04:23.078Z,33.90
2018-12-16T02:06:57.940Z,37.13
2018-12-16T02:09:35.726Z,32.00
2018-12-16T02:12:15.845Z,35.73
2018-12-16T02:14:58.111Z,32.33
2018-12-16T02:17:32.092Z,35.30
2018-12-16T02:20:10.233Z,37.70
2018-12-16T02:22:45.206Z,35.07
2018-12-16T02:25:22.363Z,38.10
2018-12-16T02:27:55.632Z,35.83
2018-12-16T02:30:35.524Z,35.53
2018-12-16T02:33:12.186Z,35.43
2018-12-16T02:35:45.189Z,36.00
2018-12-16T02:38:18.868Z,33.93
2018-12-16T02:40:57.944Z,33.57
2018-12-16T02:43:32.900Z,33.47
2018-12-16T02:46:11.304Z,36.47
2018-12-16T02:48:47.681Z,36.03
2018-12-16T02:51:23.457Z,32.43
2018-12-16T02:53:57.137Z,31.80
2018-12-16T02:56:38.703Z,36.93
2018-12-16T02:59:20.387Z,36.13
2018-12-16T03:14:31.640Z,33.73
2018-12-16T03:17:11.085Z,37.33
2018-12-16T03:19:46.827Z,37.00
2018-12-16T03:22:19.468Z,37.43
2018-12-16T03:24:52.020Z,34.70
2018-12-16T03:27:24.592Z,36.07
2018-12-16T03:29:57.447Z,32.77
2018-12-16T03:32:31.395Z,36.87
2018-12-16T03:35:08.679Z,39.03
2018-12-16T03:37:46.112Z,37.07
2018-12-16T03:40:20.445Z,35.13
2018-12-16T03:42:54.500Z,36.73
2018-12-16T03:45:27.806Z,34.27
2018-12-16T03:48:06.419Z,35.07
2018-12-16T03:50:39.421Z,33.50
2018-12-16T03:53:19.470Z,33.33
2018-12-16T03:55:47.783Z,34.27
2018-12-16T03:58:20.230Z,36.03
2018-12-16T04:00:53.001Z,33.37
2018-12-16T04:03:30.026Z,35.90
2018-12-16T04:06:04.597Z,35.60
2018-12-16T04:08:38.590Z,34.57
2018-12-16T04:11:11.754Z,35.57
2018-12-16T04:13:49.244Z,35.97
2018-12-16T04:16:24.059Z,35.17
2018-12-16T04:21:49.440Z,36.70
2018-12-16T04:24:29.289Z,33.60
2018-12-16T04:27:05.293Z,36.70
2018-12-16T04:29:42.633Z,31.47
2018-12-16T04:32:29.345Z,32.47
2018-12-16T04:35:10.594Z,37.00
2018-12-16T04:38:00.795Z,37.53
2018-12-16T04:40:37.851Z,36.63
2018-12-16T04:43:13.717Z,39.43
2018-12-16T04:45:56.265Z,40.33
2018-12-16T04:48:27.806Z,38.13
2018-12-16T04:51:00.924Z,35.73
2018-12-16T04:53:38.033Z,34.10
2018-12-16T04:56:10.405Z,32.43
2018-12-16T04:58:48.762Z,36.47
2018-12-16T05:01:25.577Z,37.43
2018-12-16T05:03:58.467Z,36.10
2018-12-16T05:06:34.764Z,36.17
2018-12-16T05:09:08.605Z,33.17
2018-12-16T05:11:42.909Z,35.63
2018-12-16T05:14:15.992Z,37.87
2018-12-16T05:16:49.069Z,37.13
2018-12-16T05:19:21.005Z,33.83
2018-12-16T05:21:58.114Z,35.20
2018-12-16T05:24:30.869Z,31.73
2018-12-16T05:27:03.667Z,33.53
2018-12-16T05:29:45.797Z,33.17
2018-12-16T05:32:29.226Z,35.20
2018-12-16T05:35:11.962Z,32.77
2018-12-16T05:37:49.686Z,34.93
2018-12-16T05:40:22.921Z,35.57
2018-12-16T05:42:57.591Z,35.23
2018-12-16T05:45:38.331Z,33.57
2018-12-16T05:48:17.480Z,32.77
2018-12-16T05:50:58.710Z,37.27
2018-12-16T05:53:36.844Z,35.60
2018-12-16T05:56:12.476Z,34.53
2018-12-16T05:58:56.240Z,36.07
2018-12-16T06:01:33.543Z,37.70
2018-12-16T06:04:14.851Z,46.00
2018-12-16T06:06:53.388Z,43.93
2018-12-16T06:09:29.828Z,44.70
2018-12-16T06:12:05.558Z,48.63
2018-12-16T06:14:41.070Z,44.40
2018-12-16T06:17:21.747Z,46.03
2018-12-16T06:19:56.797Z,43.87
2018-12-16T06:25:01.879Z,39.77
2018-12-16T06:27:38.777Z,38.10
2018-12-16T06:30:19.566Z,36.37
2018-12-16T06:32:54.119Z,41.63
2018-12-16T06:35:29.916Z,44.07
2018-12-16T06:38:02.969Z,42.53
2018-12-16T06:40:38.538Z,42.40
2018-12-16T06:43:13.722Z,43.80
2018-12-16T06:45:51.486Z,45.90
2018-12-16T06:48:32.437Z,43.57
2018-12-16T06:51:10.177Z,49.70
2018-12-16T06:53:43.373Z,46.73
2018-12-16T06:56:16.365Z,54.70
2018-12-16T06:58:50.536Z,44.90
2018-12-16T07:01:23.565Z,43.60
2018-12-16T07:03:57.564Z,39.70
2018-12-16T07:06:31.931Z,39.30
2018-12-16T07:09:08.417Z,40.20
2018-12-16T07:11:42.001Z,41.50
2018-12-16T07:14:16.654Z,36.87
2018-12-16T07:16:50.095Z,34.57
2018-12-16T07:19:28.015Z,37.43
2018-12-16T07:22:02.636Z,34.40
2018-12-16T07:24:36.094Z,38.00
2018-12-16T07:27:09.907Z,31.93
2018-12-16T07:29:43.324Z,31.03
2018-12-16T07:32:16.328Z,33.03
2018-12-16T07:34:53.359Z,32.07
2018-12-16T07:37:27.006Z,33.23
2018-12-16T07:40:05.953Z,31.83
2018-12-16T07:42:39.740Z,30.63
2018-12-16T07:45:16.561Z,31.20
2018-12-16T07:47:47.742Z,32.40
2018-12-16T07:50:21.710Z,29.90
2018-12-16T07:53:02.208Z,30.30
2018-12-16T07:55:42.174Z,32.63
2018-12-16T07:58:18.761Z,30.33
2018-12-16T08:00:57.079Z,29.67
2018-12-16T08:03:30.119Z,30.30
2018-12-16T08:06:06.448Z,29.70
2018-12-16T08:08:39.607Z,29.97
2018-12-16T08:11:17.528Z,32.30
2018-12-16T08:13:57.100Z,30.37
2018-12-16T08:16:30.259Z,31.43
2018-12-16T08:19:08.071Z,30.83
2018-12-16T08:21:45.223Z,30.37
2018-12-16T08:24:22.917Z,32.53
2018-12-16T08:26:53.632Z,31.27
2018-12-16T08:37:03.593Z,33.37
2018-12-16T08:39:46.532Z,31.93
2018-12-16T08:42:24.085Z,31.70
2018-12-16T08:45:07.511Z,29.47
2018-12-16T08:47:46.023Z,31.73
2018-12-16T08:50:21.793Z,28.23
2018-12-16T08:52:56.966Z,31.90
2018-12-16T08:55:31.772Z,32.67
2018-12-16T08:58:08.463Z,31.53
2018-12-16T09:00:46.424Z,28.03
2018-12-16T09:03:25.201Z,29.33
2018-12-16T09:06:07.064Z,32.93
2018-12-16T09:08:42.807Z,33.47
2018-12-16T09:11:21.138Z,29.93
2018-12-16T09:13:58.668Z,29.73
2018-12-16T09:16:35.205Z,32.03
2018-12-16T09:19:19.025Z,29.87
2018-12-16T09:21:55.416Z,31.63
2018-12-16T09:24:28.150Z,31.13
2018-12-16T09:27:01.971Z,32.73
2018-12-16T09:29:35.882Z,38.20
2018-12-16T09:32:09.388Z,32.70
2018-12-16T09:34:44.940Z,32.43
2018-12-16T09:37:18.386Z,34.87
2018-12-16T09:39:55.443Z,32.70
2018-12-16T09:42:29.137Z,28.73
2018-12-16T09:45:01.827Z,31.93
2018-12-16T09:47:36.355Z,26.80
2018-12-16T09:50:15.358Z,31.40
2018-12-16T09:52:48.322Z,28.77
2018-12-16T09:55:21.542Z,30.10
2018-12-16T09:57:54.948Z,28.90
2018-12-16T10:00:28.481Z,31.50
2018-12-16T10:03:05.972Z,24.70
2018-12-16T10:05:38.912Z,25.37
2018-12-16T10:08:12.089Z,23.97
2018-12-16T10:10:48.379Z,28.80
2018-12-16T10:13:20.722Z,25.47
2018-12-16T10:15:57.161Z,31.70
2018-12-16T10:18:39.470Z,28.17
2018-12-16T10:21:15.213Z,30.93
2018-12-16T10:23:47.528Z,27.73
2018-12-16T10:26:20.554Z,26.77
2018-12-16T10:28:53.633Z,29.23
2018-12-16T10:31:26.078Z,26.70
2018-12-16T10:34:02.446Z,29.73
2018-12-16T10:36:35.612Z,27.90
2018-12-16T10:39:10.951Z,29.23
2018-12-16T10:41:44.947Z,30.67
2018-12-16T10:44:18.117Z,36.60
2018-12-16T10:46:52.510Z,27.70
2018-12-16T10:49:25.691Z,32.13
2018-12-16T10:51:59.445Z,25.80
2018-12-16T10:54:32.653Z,26.37
2018-12-16T10:57:09.071Z,27.03
2018-12-16T10:59:42.220Z,25.27
2018-12-16T11:02:15.376Z,22.73
2018-12-16T11:04:48.375Z,23.10
2018-12-16T11:07:20.507Z,28.77
2018-12-16T11:09:52.752Z,24.07
2018-12-16T11:12:26.234Z,28.57
2018-12-16T11:14:58.982Z,23.80
2018-12-16T11:17:32.043Z,25.13
2018-12-16T11:20:08.522Z,29.63
2018-12-16T11:22:43.221Z,25.93
2018-12-16T11:25:16.756Z,27.67
2018-12-16T11:27:48.233Z,26.40
2018-12-16T11:30:21.746Z,25.90
2018-12-16T11:32:56.657Z,26.23
2018-12-16T11:35:30.916Z,34.70
2018-12-16T11:38:04.445Z,25.00
2018-12-16T11:43:11.009Z,24.17
2018-12-16T11:45:43.332Z,27.07
2018-12-16T11:48:20.415Z,21.47
2018-12-16T11:50:52.922Z,29.27
2018-12-16T11:53:30.100Z,25.57
2018-12-16T11:56:09.234Z,28.93
2018-12-16T11:58:43.746Z,25.20
2018-12-16T12:01:22.512Z,24.57
2018-12-16T12:03:59.320Z,28.60
2018-12-16T12:06:38.680Z,27.00
2018-12-16T12:09:15.422Z,28.10
2018-12-16T12:11:47.356Z,26.93
2018-12-16T12:14:25.928Z,25.37
2018-12-16T12:17:01.610Z,27.13
2018-12-16T12:19:42.439Z,27.70
2018-12-16T12:22:17.499Z,27.97
2018-12-16T12:24:50.798Z,25.77
2018-12-16T12:27:27.857Z,25.43
2018-12-16T12:30:00.484Z,26.40
2018-12-16T12:32:39.171Z,31.97
2018-12-16T12:35:16.499Z,29.97
2018-12-16T12:37:51.352Z,29.23
2018-12-16T12:40:24.024Z,30.00
2018-12-16T12:42:58.361Z,30.47
2018-12-16T12:48:03.480Z,31.00
2018-12-16T12:50:37.611Z,29.93
2018-12-16T12:53:12.059Z,30.37
2018-12-16T12:55:46.045Z,31.57
2018-12-16T12:58:18.698Z,33.17
2018-12-16T13:00:53.089Z,29.77
2018-12-16T13:03:27.251Z,28.07
2018-12-16T13:06:03.980Z,31.00
2018-12-16T13:08:38.515Z,32.00
2018-12-16T13:11:12.262Z,29.50
2018-12-16T13:13:50.346Z,32.17
2018-12-16T13:16:25.077Z,31.87
2018-12-16T13:19:01.410Z,30.50
2018-12-16T13:21:40.709Z,32.70
2018-12-16T13:24:19.419Z,27.53
2018-12-16T13:26:53.560Z,28.73
2018-12-16T13:29:26.974Z,30.23
2018-12-16T13:31:59.474Z,31.47
2018-12-16T13:34:39.246Z,32.90
2018-12-16T13:37:14.850Z,29.50
2018-12-16T13:39:47.447Z,34.07
2018-12-16T13:42:20.606Z,30.50
2018-12-16T13:44:53.396Z,34.87
2018-12-16T13:47:28.424Z,31.97
2018-12-16T13:55:03.825Z,32.83
2018-12-16T14:02:36.783Z,32.10
2018-12-16T14:05:09.689Z,30.40
2018-12-16T14:07:42.637Z,38.73
2018-12-16T14:10:15.216Z,34.27
2018-12-16T14:12:45.637Z,33.30
2018-12-16T14:15:22.529Z,38.00
2018-12-16T14:17:53.600Z,36.67
2018-12-16T14:20:30.899Z,40.20
2018-12-16T14:23:04.213Z,30.93
2018-12-16T14:25:38.233Z,32.73
2018-12-16T14:28:11.164Z,36.63
2018-12-16T14:30:44.577Z,34.17
2018-12-16T14:33:18.232Z,30.73
2018-12-16T14:35:51.378Z,34.43
2018-12-16T14:38:29.100Z,32.20
2018-12-16T14:41:01.845Z,35.47
2018-12-16T14:43:35.165Z,35.00
2018-12-16T14:46:12.525Z,32.83
2018-12-16T14:48:46.417Z,36.57
2018-12-16T14:51:22.574Z,37.00
2018-12-16T14:53:54.969Z,35.87
2018-12-16T14:56:28.044Z,36.27
2018-12-16T14:59:04.523Z,35.10
2018-12-16T15:01:42.728Z,32.57
2018-12-16T15:04:15.889Z,32.60
2018-12-16T15:06:48.396Z,39.80
2018-12-16T15:09:21.776Z,36.77
2018-12-16T15:11:55.047Z,36.63
2018-12-16T15:14:32.594Z,35.27
2018-12-16T15:17:10.965Z,39.83
2018-12-16T15:19:43.818Z,37.67
2018-12-16T15:22:14.209Z,29.33
2018-12-16T15:24:46.963Z,34.40
2018-12-16T15:27:24.135Z,36.43
2018-12-16T15:30:02.060Z,36.13
2018-12-16T15:32:36.986Z,36.50
2018-12-16T15:35:15.060Z,32.67
2018-12-16T15:37:47.679Z,31.03
2018-12-16T15:40:24.011Z,31.93
2018-12-16T15:42:56.093Z,36.13
2018-12-16T15:45:32.629Z,37.80
2018-12-16T15:48:08.889Z,34.93
2018-12-16T15:50:42.627Z,37.73
2018-12-16T15:53:15.655Z,39.73
2018-12-16T15:55:48.347Z,36.90
2018-12-16T15:58:22.028Z,35.43
2018-12-16T16:00:58.244Z,37.63
2018-12-16T16:03:32.192Z,35.20
2018-12-16T16:06:05.594Z,34.00
2018-12-16T16:08:37.975Z,37.07
2018-12-16T16:11:10.260Z,41.63
2018-12-16T16:13:43.547Z,36.43
2018-12-16T16:16:17.636Z,40.13
2018-12-16T16:18:53.968Z,40.63
2018-12-16T16:21:31.530Z,39.63
2018-12-16T16:24:04.093Z,36.70
2018-12-16T16:26:37.490Z,39.93
2018-12-16T16:29:14.478Z,39.87
2018-12-16T16:31:47.727Z,37.40
2018-12-16T16:34:25.199Z,42.43
2018-12-16T16:37:02.051Z,36.93
2018-12-16T16:39:39.137Z,40.20
2018-12-16T16:42:17.012Z,46.23
2018-12-16T16:44:50.438Z,43.90
2018-12-16T16:47:23.734Z,42.23
2018-12-16T16:49:57.304Z,47.40
2018-12-16T16:52:30.396Z,42.77
2018-12-16T16:55:07.686Z,45.30
2018-12-16T16:57:40.862Z,47.77
2018-12-16T17:00:18.976Z,47.70
2018-12-16T17:02:52.284Z,44.00
2018-12-16T17:05:25.413Z,40.83
2018-12-16T17:07:58.504Z,43.73
2018-12-16T17:10:35.385Z,40.20
2018-12-16T17:13:08.280Z,45.13
2018-12-16T17:15:46.515Z,42.67
2018-12-16T17:18:22.984Z,41.40
2018-12-16T17:21:00.206Z,41.03
2018-12-16T17:23:38.666Z,42.10
2018-12-16T17:26:12.038Z,42.03
2018-12-16T17:28:45.465Z,38.97
2018-12-16T17:31:21.608Z,43.60
2018-12-16T17:33:54.968Z,62.47
2018-12-16T17:36:28.003Z,72.43
2018-12-16T17:39:02.187Z,59.20
2018-12-16T17:41:40.145Z,54.90
2018-12-16T17:44:19.610Z,46.23
2018-12-16T17:46:53.391Z,39.80
2018-12-16T17:49:27.708Z,46.13
2018-12-16T17:52:06.087Z,42.03
2018-12-16T17:54:39.279Z,39.63
2018-12-16T17:57:12.409Z,40.00
2018-12-16T17:59:43.420Z,47.77
2018-12-16T18:02:21.921Z,40.83
2018-12-16T18:04:55.088Z,45.10
2018-12-16T18:07:29.540Z,40.70
2018-12-16T18:10:03.361Z,39.60
2018-12-16T18:22:40.623Z,37.27
2018-12-16T18:25:17.670Z,37.30
2018-12-16T18:27:48.563Z,38.37
2018-12-16T18:30:21.626Z,40.97
2018-12-16T18:32:56.040Z,36.60
2018-12-16T18:35:33.046Z,37.80
2018-12-16T18:38:06.217Z,37.17
2018-12-16T18:40:44.049Z,36.13
2018-12-16T18:43:15.318Z,37.47
2018-12-16T18:45:48.513Z,37.57
2018-12-16T18:48:23.315Z,41.80
2018-12-16T18:50:59.644Z,43.10
2018-12-16T18:53:32.770Z,39.27
2018-12-16T18:56:06.007Z,38.67
2018-12-16T18:58:38.133Z,41.47
2018-12-16T19:01:15.420Z,45.57
2018-12-16T19:03:48.487Z,47.83
2018-12-16T19:06:21.757Z,50.77
2018-12-16T19:08:58.140Z,45.27
2018-12-16T19:11:31.190Z,44.83
2018-12-16T19:14:03.643Z,47.50
2018-12-16T19:16:36.841Z,63.00
2018-12-16T19:19:08.320Z,49.60
2018-12-16T19:21:46.684Z,51.23
2018-12-16T19:24:20.175Z,44.77
2018-12-16T19:26:58.154Z,47.77
2018-12-16T19:29:27.899Z,52.47
2018-12-16T19:32:01.491Z,48.63
2018-12-16T19:34:34.243Z,50.57
2018-12-16T19:37:07.447Z,50.77
2018-12-16T19:39:42.486Z,51.97
2018-12-16T19:42:16.209Z,60.07
2018-12-16T19:44:49.736Z,53.63
2018-12-16T19:47:22.482Z,57.80
2018-12-16T19:49:54.941Z,60.13
2018-12-16T19:52:25.769Z,55.27
2018-12-16T19:55:00.595Z,58.03
2018-12-16T19:57:37.207Z,51.70
2018-12-16T20:00:12.039Z,55.27
2018-12-16T20:02:44.992Z,59.00
2018-12-16T20:05:21.327Z,64.50
2018-12-16T20:07:54.057Z,61.83
2018-12-16T20:10:30.277Z,61.53
2018-12-16T20:13:03.210Z,65.30
2018-12-16T20:15:39.446Z,70.37
2018-12-16T20:18:11.591Z,63.10
2018-12-16T20:20:48.582Z,62.43
2018-12-16T20:23:21.089Z,61.43
2018-12-16T20:25:58.051Z,64.10
2018-12-16T20:28:28.451Z,56.10
2018-12-16T20:31:04.631Z,57.27
2018-12-16T20:33:38.821Z,61.60
2018-12-16T20:36:12.024Z,58.13
2018-12-16T20:38:45.058Z,57.33
2018-12-16T20:41:18.706Z,52.90
2018-12-16T20:43:52.235Z,51.00
2018-12-16T20:46:25.230Z,57.67
2018-12-16T20:48:58.557Z,54.60
2018-12-16T20:51:31.362Z,51.03
2018-12-16T20:54:04.578Z,59.10
2018-12-16T20:56:37.840Z,58.33
2018-12-16T20:59:14.834Z,59.43
2018-12-16T21:01:47.999Z,54.77
2018-12-16T21:04:21.075Z,55.13
2018-12-16T21:06:54.756Z,54.27
2018-12-16T21:09:27.688Z,56.10
2018-12-16T21:12:08.929Z,50.10
2018-12-16T21:14:47.289Z,50.93
2018-12-16T21:17:25.373Z,55.30
2018-12-16T21:20:03.013Z,49.93
2018-12-16T21:22:36.164Z,56.27
2018-12-16T21:25:13.304Z,54.33
2018-12-16T21:27:46.264Z,61.40
2018-12-16T21:30:23.492Z,57.53
2018-12-16T21:32:57.474Z,51.53
2018-12-16T21:35:31.360Z,54.80
2018-12-16T21:38:10.053Z,57.60
2018-12-16T21:40:46.796Z,52.87
2018-12-16T21:43:20.948Z,54.80
2018-12-16T21:45:59.311Z,52.73
2018-12-16T21:48:33.226Z,53.47
2018-12-16T21:51:06.364Z,54.83
2018-12-16T21:53:42.873Z,55.20
2018-12-16T21:56:14.043Z,51.07
2018-12-16T21:58:51.634Z,52.30
2018-12-16T22:01:28.792Z,50.57
2018-12-16T22:04:06.490Z,53.20
2018-12-16T22:06:43.162Z,47.80
2018-12-16T22:09:16.447Z,48.67
2018-12-16T22:11:49.687Z,48.47
2018-12-16T22:14:23.663Z,51.13
2018-12-16T22:16:56.822Z,44.50
2018-12-16T22:19:29.878Z,49.77
2018-12-16T22:22:04.787Z,46.70
2018-12-16T22:24:38.112Z,47.90
2018-12-16T22:27:16.591Z,49.80
2018-12-16T22:29:51.479Z,51.03
2018-12-16T22:32:24.787Z,49.87
2018-12-16T22:34:57.718Z,47.00
2018-12-16T22:37:30.343Z,50.23
2018-12-16T22:40:03.184Z,53.13
2018-12-16T22:42:36.370Z,48.43
2018-12-16T22:45:14.119Z,46.57
2018-12-16T22:47:46.636Z,46.43
2018-12-16T22:50:19.539Z,50.23
2018-12-16T22:52:52.743Z,48.67
2018-12-16T22:55:25.553Z,51.87
2018-12-16T22:57:57.964Z,44.43
2018-12-16T23:00:31.251Z,46.00
2018-12-16T23:03:06.075Z,49.03
2018-12-16T23:05:39.538Z,46.37
2018-12-16T23:08:13.570Z,53.43
2018-12-16T23:10:46.752Z,48.10
2018-12-16T23:13:23.015Z,45.00
2018-12-16T23:15:55.525Z,48.47
2018-12-16T23:18:28.087Z,43.83
2018-12-16T23:21:05.903Z,41.80
2018-12-16T23:23:39.357Z,44.07
2018-12-16T23:26:12.499Z,47.40
2018-12-16T23:28:45.663Z,42.40
2018-12-16T23:31:18.909Z,49.53
2018-12-16T23:33:52.685Z,46.50
2018-12-16T23:36:29.102Z,48.10
2018-12-16T23:39:07.682Z,44.47
2018-12-16T23:41:42.835Z,42.83
2018-12-16T23:44:21.553Z,44.07
2018-12-16T23:47:00.318Z,44.57
2018-12-16T23:49:33.300Z,44.87
2018-12-16T23:52:06.034Z,37.40
2018-12-16T23:54:44.409Z,45.87
2018-12-16T23:57:21.053Z,44.13
2018-12-16T23:59:55.164Z,45.80
